Shebandowan, Canada
Current Conditions -  °F | °C
As of 6:00 AM on Sunday 21 Dec 2014 (Local Time) from CYQT Reporting Station
Overcast Overcast  
Wind Chill: 32°   Ceiling: 1800
Heat Index: 32°   Visibility: 10mi
Dew Point: 28°   Wind: 3mph
Humidity: 87%   Direction: 150°SSE
Pressure: 30.02"   Gusts: NA
Location:  48.63°N, 90.07°W
Report Text: CYQT 211200Z 15003KT 10SM OVC018 00/M02 A3002 RMK SC8 SLP176
Loading
Personal Weather Stations






























Interactive Weather Map New forecast layout! Learn more

10-Day Weather Forecast

Advertisements
Track Severe Weather on mobile